Phoenix, Arizona
Traffic Map
Current Weather Conditions
Phoenix, Arizona
Few Clouds
Few Clouds
103°
Feels Like: 103°
Wind Chill: 103° Ceiling: Unl
Heat Index: 103° Visibility: 10mi
Dew Point: 28° Wind: 6mph
Humidity: 7% Direction: ° ()
Pressure: 29.86in Gusts: 0mph
Raw Report DataKPHX 172251Z VRB05KT 10SM FEW120 39/M02 A2986 RMK AO2 SLP090 T03941022
Traffic Incident Summary
Active as of:
Severity:
Category:
InformationThere was an issue retrieving the traffic information for this location. Please try a different location or try again shortly.
Advertisements